| time (UTC) | temp C | wind direction | speed KPH | gust KPH | rain 1hr cm | rain 24hr cm | rain mn cm | humidity % | barometer mb |
| 20260504044551 | 14 | 360 | 6.4 | 12.9 | 0.00 | 0.05 | 0.05 | 66 | 1005.5 |
| 20260504043047 | 15 | 360 | 6.4 | 19.3 | 0.00 | 0.05 | 0.05 | 65 | 1005.4 |
| 20260504041544 | 15 | 360 | 6.4 | 14.5 | 0.00 | 0.05 | 0.05 | 64 | 1005.3 |
| 20260504034609 | 15 | 360 | 4.8 | 14.5 | 0.00 | 0.05 | 0.05 | 63 | 1005.3 |
| 20260504033047 | 15 | 360 | 4.8 | 16.1 | 0.00 | 0.05 | 0.05 | 63 | 1005.5 |
| 20260504031546 | 15 | 360 | 4.8 | 9.7 | 0.00 | 0.05 | 0.05 | 62 | 1005.8 |
| 20260504024549 | 16 | 360 | 3.2 | 12.9 | 0.00 | 0.05 | 0.05 | 61 | 1005.8 |
| 20260504023043 | 16 | 360 | 4.8 | 14.5 | 0.00 | 0.05 | 0.05 | 61 | 1005.7 |
| 20260504021550 | 16 | 360 | 3.2 | 9.7 | 0.00 | 0.05 | 0.05 | 60 | 1005.7 |
| 20260504020047 | 16 | 360 | 3.2 | 6.4 | 0.00 | 0.05 | 0.05 | 59 | 1005.5 |
| 20260504014545 | 17 | 360 | 6.4 | 14.5 | 0.00 | 0.05 | 0.05 | 58 | 1005.3 |
| 20260504013051 | 17 | 360 | 4.8 | 14.5 | 0.00 | 0.05 | 0.05 | 57 | 1005.3 |
| 20260504011544 | 17 | 360 | 6.4 | 16.1 | 0.00 | 0.05 | 0.05 | 55 | 1005.1 |
| 20260504010043 | 18 | 360 | 6.4 | 19.3 | 0.00 | 0.05 | 0.05 | 53 | 1005.0 |
| 20260504004546 | 18 | 360 | 6.4 | 14.5 | 0.00 | 0.05 | 0.05 | 52 | 1005.0 |
| 20260504003044 | 19 | 360 | 8.0 | 17.7 | 0.00 | 0.05 | 0.05 | 51 | 1004.9 |
| 20260504001600 | 20 | 360 | 9.7 | 19.3 | 0.00 | 0.05 | 0.05 | 49 | 1005.0 |
| 20260504000047 | 20 | 360 | 12.9 | 27.4 | 0.00 | 0.05 | 0.05 | 48 | 1005.1 |
| 20260503234552 | 20 | 360 | 11.3 | 24.1 | 0.00 | 0.05 | 0.05 | 46 | 1005.0 |
| 20260503233046 | 20 | 360 | 16.1 | 35.4 | 0.00 | 0.05 | 0.05 | 46 | 1005.1 |
| 20260503231552 | 20 | 360 | 16.1 | 37.0 | 0.00 | 0.05 | 0.05 | 45 | 1005.2 |
| 20260503230047 | 20 | 360 | 19.3 | 35.4 | 0.00 | 0.05 | 0.05 | 45 | 1005.2 |
| 20260503224546 | 20 | 360 | 16.1 | 32.2 | 0.00 | 0.05 | 0.05 | 45 | 1005.3 |
| 20260503223048 | 20 | 360 | 19.3 | 33.8 | 0.00 | 0.05 | 0.05 | 45 | 1005.4 |
| 20260503221544 | 20 | 360 | 16.1 | 43.5 | 0.00 | 0.05 | 0.05 | 46 | 1005.3 |
| 20260503220052 | 20 | 360 | 14.5 | 30.6 | 0.00 | 0.05 | 0.05 | 46 | 1005.6 |
| 20260503214547 | 20 | 360 | 20.9 | 43.5 | 0.00 | 0.05 | 0.05 | 45 | 1005.5 |
| 20260503213047 | 19 | 360 | 20.9 | 48.3 | 0.00 | 0.05 | 0.05 | 44 | 1005.8 |
| 20260503211549 | 19 | 360 | 25.7 | 40.2 | 0.00 | 0.05 | 0.05 | 45 | 1006.3 |
| 20260503210043 | 18 | 360 | 20.9 | 41.8 | 0.00 | 0.05 | 0.05 | 45 | 1006.7 |
| 20260503204553 | 18 | 360 | 20.9 | 48.3 | 0.00 | 0.05 | 0.05 | 45 | 1006.9 |
| 20260503203050 | 18 | 360 | 20.9 | 51.5 | 0.00 | 0.05 | 0.05 | 44 | 1007.2 |
| 20260503201550 | 18 | 360 | 19.3 | 43.5 | 0.00 | 0.05 | 0.05 | 44 | 1007.5 |
| 20260503200046 | 18 | 360 | 20.9 | 43.5 | 0.00 | 0.05 | 0.05 | 45 | 1007.6 |
| 20260503194546 | 18 | 360 | 19.3 | 48.3 | 0.00 | 0.05 | 0.05 | 46 | 1007.8 |
| 20260503193102 | 17 | 360 | 24.1 | 56.3 | 0.00 | 0.05 | 0.05 | 50 | 1007.9 |
| 20260503191552 | 16 | 360 | 22.5 | 48.3 | 0.00 | 0.05 | 0.05 | 55 | 1008.3 |
| 20260503190107 | 16 | 360 | 17.7 | 43.5 | 0.00 | 0.05 | 0.05 | 57 | 1008.3 |
| 20260503184543 | 15 | 360 | 19.3 | 37.0 | 0.00 | 0.05 | 0.05 | 61 | 1008.7 |
| 20260503183057 | 14 | 360 | 19.3 | 46.7 | 0.00 | 0.05 | 0.05 | 64 | 1009.0 |
| 20260503181545 | 13 | 360 | 17.7 | 38.6 | 0.00 | 0.05 | 0.05 | 66 | 1009.4 |
| 20260503180053 | 12 | 360 | 14.5 | 37.0 | 0.00 | 0.05 | 0.05 | 67 | 1009.6 |
| 20260503174542 | 12 | 360 | 16.1 | 32.2 | 0.03 | 0.05 | 0.05 | 69 | 1009.8 |
| 20260503173103 | 11 | 360 | 8.0 | 27.4 | 0.03 | 0.05 | 0.05 | 78 | 1010.3 |
| 20260503171553 | 10 | 360 | 8.0 | 22.5 | 0.03 | 0.05 | 0.05 | 81 | 1010.7 |
| 20260503081547 | 7 | 360 | 4.8 | 9.7 | 0.00 | 0.00 | 0.00 | 62 | 1014.2 |
| 20260503071605 | 7 | 360 | 1.6 | 6.4 | 0.00 | 0.00 | 0.00 | 63 | 1014.3 |